sensor_id;sensor_type;location;lat;lon;timestamp;pressure;altitude;pressure_sealevel;temperature;humidity
47530;BME280;33272;51.922;7.730;2022-10-18T00:01:50;101795.81;;;16.72;100.00
47530;BME280;33272;51.922;7.730;2022-10-18T00:04:17;101781.88;;;16.70;100.00
47530;BME280;33272;51.922;7.730;2022-10-18T00:06:44;101779.09;;;16.67;100.00
47530;BME280;33272;51.922;7.730;2022-10-18T00:09:11;101788.47;;;16.65;100.00
47530;BME280;33272;51.922;7.730;2022-10-18T00:11:38;101784.06;;;16.64;100.00
47530;BME280;33272;51.922;7.730;2022-10-18T00:14:07;101796.09;;;16.63;100.00
47530;BME280;33272;51.922;7.730;2022-10-18T00:16:34;101797.00;;;16.64;100.00
47530;BME280;33272;51.922;7.730;2022-10-18T00:19:01;101794.31;;;16.62;100.00
47530;BME280;33272;51.922;7.730;2022-10-18T00:21:28;101792.53;;;16.61;100.00
47530;BME280;33272;51.922;7.730;2022-10-18T00:23:55;101790.03;;;16.63;100.00
47530;BME280;33272;51.922;7.730;2022-10-18T00:26:25;101785.75;;;16.63;100.00
47530;BME280;33272;51.922;7.730;2022-10-18T00:28:56;101795.28;;;16.64;100.00
47530;BME280;33272;51.922;7.730;2022-10-18T00:31:27;101795.41;;;16.66;100.00
47530;BME280;33272;51.922;7.730;2022-10-18T00:33:57;101797.19;;;16.67;100.00
47530;BME280;33272;51.922;7.730;2022-10-18T00:36:27;101801.47;;;16.66;100.00
47530;BME280;33272;51.922;7.730;2022-10-18T00:38:54;101795.28;;;16.64;100.00
47530;BME280;33272;51.922;7.730;2022-10-18T00:41:25;101793.50;;;16.63;100.00
47530;BME280;33272;51.922;7.730;2022-10-18T00:43:56;101790.13;;;16.64;100.00
47530;BME280;33272;51.922;7.730;2022-10-18T00:46:27;101794.41;;;16.64;100.00
47530;BME280;33272;51.922;7.730;2022-10-18T00:48:56;101792.53;;;16.61;100.00
47530;BME280;33272;51.922;7.730;2022-10-18T00:51:29;101775.31;;;16.62;100.00
47530;BME280;33272;51.922;7.730;2022-10-18T00:53:58;101786.44;;;16.61;100.00
47530;BME280;33272;51.922;7.730;2022-10-18T00:56:25;101785.66;;;16.62;100.00
47530;BME280;33272;51.922;7.730;2022-10-18T00:58:53;101783.97;;;16.62;100.00
47530;BME280;33272;51.922;7.730;2022-10-18T01:01:20;101783.09;;;16.62;100.00
47530;BME280;33272;51.922;7.730;2022-10-18T01:03:49;101782.06;;;16.60;100.00
47530;BME280;33272;51.922;7.730;2022-10-18T01:06:16;101785.47;;;16.59;100.00
47530;BME280;33272;51.922;7.730;2022-10-18T01:09:03;101780.97;;;16.56;100.00
47530;BME280;33272;51.922;7.730;2022-10-18T01:11:54;101779.09;;;16.54;100.00
47530;BME280;33272;51.922;7.730;2022-10-18T01:14:39;101774.72;;;16.53;100.00
47530;BME280;33272;51.922;7.730;2022-10-18T01:17:15;101774.72;;;16.53;100.00
47530;BME280;33272;51.922;7.730;2022-10-18T01:23:04;101767.44;;;16.47;100.00
47530;BME280;33272;51.922;7.730;2022-10-18T01:25:44;101765.53;;;16.44;100.00
47530;BME280;33272;51.922;7.730;2022-10-18T01:28:33;101756.69;;;16.41;100.00
47530;BME280;33272;51.922;7.730;2022-10-18T01:31:07;101756.63;;;16.39;100.00
47530;BME280;33272;51.922;7.730;2022-10-18T01:33:40;101758.19;;;16.37;100.00
47530;BME280;33272;51.922;7.730;2022-10-18T01:36:14;101757.97;;;16.34;100.00
47530;BME280;33272;51.922;7.730;2022-10-18T01:38:44;101751.81;;;16.32;100.00
47530;BME280;33272;51.922;7.730;2022-10-18T01:41:14;101747.44;;;16.31;100.00
47530;BME280;33272;51.922;7.730;2022-10-18T01:43:45;101752.50;;;16.30;100.00
47530;BME280;33272;51.922;7.730;2022-10-18T01:46:20;101749.81;;;16.28;100.00
47530;BME280;33272;51.922;7.730;2022-10-18T01:48:48;101751.38;;;16.26;100.00
47530;BME280;33272;51.922;7.730;2022-10-18T01:51:18;101747.03;;;16.25;100.00
47530;BME280;33272;51.922;7.730;2022-10-18T01:53:46;101753.69;;;16.21;100.00
47530;BME280;33272;51.922;7.730;2022-10-18T01:56:25;101749.09;;;16.17;100.00
47530;BME280;33272;51.922;7.730;2022-10-18T01:59:06;101759.03;;;16.11;100.00
47530;BME280;33272;51.922;7.730;2022-10-18T02:01:49;101760.59;;;16.09;100.00
47530;BME280;33272;51.922;7.730;2022-10-18T02:04:28;101763.84;;;16.07;100.00
47530;BME280;33272;51.922;7.730;2022-10-18T02:07:05;101752.72;;;16.08;100.00
47530;BME280;33272;51.922;7.730;2022-10-18T02:09:36;101755.31;;;16.08;100.00
47530;BME280;33272;51.922;7.730;2022-10-18T02:12:07;101760.47;;;16.08;100.00
47530;BME280;33272;51.922;7.730;2022-10-18T02:14:36;101748.38;;;16.07;100.00
47530;BME280;33272;51.922;7.730;2022-10-18T02:17:07;101746.78;;;16.09;100.00
47530;BME280;33272;51.922;7.730;2022-10-18T02:19:38;101739.94;;;16.09;100.00
47530;BME280;33272;51.922;7.730;2022-10-18T02:22:07;101740.81;;;16.10;100.00
47530;BME280;33272;51.922;7.730;2022-10-18T02:24:38;101743.41;;;16.10;100.00
47530;BME280;33272;51.922;7.730;2022-10-18T02:27:08;101744.22;;;16.09;100.00
47530;BME280;33272;51.922;7.730;2022-10-18T02:29:35;101744.97;;;16.08;100.00
47530;BME280;33272;51.922;7.730;2022-10-18T02:32:08;101745.78;;;16.07;100.00
47530;BME280;33272;51.922;7.730;2022-10-18T02:34:39;101738.94;;;16.07;100.00
47530;BME280;33272;51.922;7.730;2022-10-18T02:37:10;101750.94;;;16.07;100.00
47530;BME280;33272;51.922;7.730;2022-10-18T02:39:41;101746.59;;;16.06;100.00
47530;BME280;33272;51.922;7.730;2022-10-18T02:42:10;101755.00;;;16.03;100.00
47530;BME280;33272;51.922;7.730;2022-10-18T02:44:38;101753.22;;;16.02;100.00
47530;BME280;33272;51.922;7.730;2022-10-18T02:47:08;101748.06;;;16.02;100.00
47530;BME280;33272;51.922;7.730;2022-10-18T02:49:36;101751.53;;;16.03;100.00
47530;BME280;33272;51.922;7.730;2022-10-18T02:52:03;101751.53;;;16.03;100.00
47530;BME280;33272;51.922;7.730;2022-10-18T02:54:30;101754.81;;;16.00;100.00
47530;BME280;33272;51.922;7.730;2022-10-18T02:56:57;101747.84;;;15.99;100.00
47530;BME280;33272;51.922;7.730;2022-10-18T02:59:24;101747.72;;;15.97;100.00
47530;BME280;33272;51.922;7.730;2022-10-18T03:01:51;101747.53;;;15.94;100.00
47530;BME280;33272;51.922;7.730;2022-10-18T03:04:19;101743.16;;;15.93;100.00
47530;BME280;33272;51.922;7.730;2022-10-18T03:06:46;101743.03;;;15.92;100.00
47530;BME280;33272;51.922;7.730;2022-10-18T03:09:13;101746.53;;;15.92;100.00
47530;BME280;33272;51.922;7.730;2022-10-18T03:11:40;101741.38;;;15.92;100.00
47530;BME280;33272;51.922;7.730;2022-10-18T03:14:07;101745.75;;;15.93;100.00
47530;BME280;33272;51.922;7.730;2022-10-18T03:16:34;101745.75;;;15.93;100.00
47530;BME280;33272;51.922;7.730;2022-10-18T03:19:02;101745.75;;;15.93;100.00
47530;BME280;33272;51.922;7.730;2022-10-18T03:21:30;101742.28;;;15.93;100.00
47530;BME280;33272;51.922;7.730;2022-10-18T03:23:57;101749.34;;;15.95;100.00
47530;BME280;33272;51.922;7.730;2022-10-18T03:26:25;101752.91;;;15.97;100.00
47530;BME280;33272;51.922;7.730;2022-10-18T03:28:52;101751.34;;;15.99;100.00
47530;BME280;33272;51.922;7.730;2022-10-18T03:31:19;101754.00;;;16.01;100.00
47530;BME280;33272;51.922;7.730;2022-10-18T03:33:46;101755.91;;;16.04;100.00
47530;BME280;33272;51.922;7.730;2022-10-18T03:36:14;101751.75;;;16.06;100.00
47530;BME280;33272;51.922;7.730;2022-10-18T03:38:42;101754.53;;;16.09;100.00
47530;BME280;33272;51.922;7.730;2022-10-18T03:41:09;101752.16;;;16.12;100.00
47530;BME280;33272;51.922;7.730;2022-10-18T03:43:36;101750.56;;;16.14;100.00
47530;BME280;33272;51.922;7.730;2022-10-18T03:46:03;101751.56;;;16.16;100.00
47530;BME280;33272;51.922;7.730;2022-10-18T03:48:31;101744.84;;;16.18;100.00
47530;BME280;33272;51.922;7.730;2022-10-18T03:50:58;101749.00;;;16.16;100.00
47530;BME280;33272;51.922;7.730;2022-10-18T03:53:25;101747.22;;;16.15;100.00
47530;BME280;33272;51.922;7.730;2022-10-18T03:55:54;101741.16;;;16.14;100.00
47530;BME280;33272;51.922;7.730;2022-10-18T03:58:22;101744.41;;;16.12;100.00
47530;BME280;33272;51.922;7.730;2022-10-18T04:00:51;101747.78;;;16.11;100.00
47530;BME280;33272;51.922;7.730;2022-10-18T04:03:19;101744.31;;;16.10;100.00
47530;BME280;33272;51.922;7.730;2022-10-18T04:05:47;101745.09;;;16.09;100.00
47530;BME280;33272;51.922;7.730;2022-10-18T04:08:14;101739.13;;;16.10;100.00
47530;BME280;33272;51.922;7.730;2022-10-18T04:10:42;101734.78;;;16.09;100.00
47530;BME280;33272;51.922;7.730;2022-10-18T04:13:10;101731.38;;;16.10;100.00
47530;BME280;33272;51.922;7.730;2022-10-18T04:15:37;101731.28;;;16.09;100.00
47530;BME280;33272;51.922;7.730;2022-10-18T04:18:04;101732.88;;;16.07;100.00
47530;BME280;33272;51.922;7.730;2022-10-18T04:20:31;101722.34;;;16.04;100.00
47530;BME280;33272;51.922;7.730;2022-10-18T04:22:58;101716.06;;;16.00;100.00
47530;BME280;33272;51.922;7.730;2022-10-18T04:25:25;101726.31;;;15.98;100.00
47530;BME280;33272;51.922;7.730;2022-10-18T04:27:54;101718.34;;;15.95;100.00
47530;BME280;33272;51.922;7.730;2022-10-18T04:30:22;101725.09;;;15.93;100.00
47530;BME280;33272;51.922;7.730;2022-10-18T04:32:49;101732.50;;;15.89;100.00
47530;BME280;33272;51.922;7.730;2022-10-18T04:35:16;101732.78;;;15.80;100.00
47530;BME280;33272;51.922;7.730;2022-10-18T04:37:44;101747.19;;;15.77;100.00
47530;BME280;33272;51.922;7.730;2022-10-18T04:40:11;101747.06;;;15.75;100.00
47530;BME280;33272;51.922;7.730;2022-10-18T04:42:38;101758.94;;;15.73;100.00
47530;BME280;33272;51.922;7.730;2022-10-18T04:45:07;101752.91;;;15.72;100.00
47530;BME280;33272;51.922;7.730;2022-10-18T04:47:35;101753.91;;;15.74;100.00
47530;BME280;33272;51.922;7.730;2022-10-18T04:50:03;101748.97;;;15.78;100.00
47530;BME280;33272;51.922;7.730;2022-10-18T04:52:30;101755.00;;;15.78;100.00
47530;BME280;33272;51.922;7.730;2022-10-18T04:54:57;101757.16;;;15.72;100.00
47530;BME280;33272;51.922;7.730;2022-10-18T04:57:24;101757.28;;;15.73;100.00
47530;BME280;33272;51.922;7.730;2022-10-18T04:59:51;101755.69;;;15.75;100.00
47530;BME280;33272;51.922;7.730;2022-10-18T05:02:18;101760.09;;;15.77;100.00
47530;BME280;33272;51.922;7.730;2022-10-18T05:04:46;101755.22;;;15.81;100.00
47530;BME280;33272;51.922;7.730;2022-10-18T05:07:13;101758.81;;;15.83;100.00
47530;BME280;33272;51.922;7.730;2022-10-18T05:09:40;101751.28;;;15.86;100.00
47530;BME280;33272;51.922;7.730;2022-10-18T05:12:07;101748.78;;;15.88;100.00
47530;BME280;33272;51.922;7.730;2022-10-18T05:14:34;101756.44;;;15.86;100.00
47530;BME280;33272;51.922;7.730;2022-10-18T05:17:01;101758.91;;;15.85;100.00
47530;BME280;33272;51.922;7.730;2022-10-18T05:19:28;101752.84;;;15.84;100.00
47530;BME280;33272;51.922;7.730;2022-10-18T05:21:56;101756.31;;;15.85;100.00
47530;BME280;33272;51.922;7.730;2022-10-18T05:24:24;101752.84;;;15.84;100.00
47530;BME280;33272;51.922;7.730;2022-10-18T05:26:51;101753.66;;;15.83;100.00
47530;BME280;33272;51.922;7.730;2022-10-18T05:29:18;101749.25;;;15.82;100.00
47530;BME280;33272;51.922;7.730;2022-10-18T05:31:46;101750.88;;;15.80;100.00
47530;BME280;33272;51.922;7.730;2022-10-18T05:34:13;101762.75;;;15.78;100.00
47530;BME280;33272;51.922;7.730;2022-10-18T05:36:40;101753.22;;;15.77;100.00
47530;BME280;33272;51.922;7.730;2022-10-18T05:39:09;101756.50;;;15.74;100.00
47530;BME280;33272;51.922;7.730;2022-10-18T05:41:36;101756.50;;;15.74;100.00
47530;BME280;33272;51.922;7.730;2022-10-18T05:44:03;101758.41;;;15.77;100.00
47530;BME280;33272;51.922;7.730;2022-10-18T05:46:32;101755.13;;;15.80;100.00
47530;BME280;33272;51.922;7.730;2022-10-18T05:48:59;101752.56;;;15.80;100.00
47530;BME280;33272;51.922;7.730;2022-10-18T05:51:26;101748.50;;;15.83;100.00
47530;BME280;33272;51.922;7.730;2022-10-18T05:53:53;101745.03;;;15.83;100.00
47530;BME280;33272;51.922;7.730;2022-10-18T05:56:21;101753.88;;;15.86;100.00
47530;BME280;33272;51.922;7.730;2022-10-18T05:58:50;101749.69;;;15.88;100.00
47530;BME280;33272;51.922;7.730;2022-10-18T06:01:17;101757.56;;;15.90;100.00
47530;BME280;33272;51.922;7.730;2022-10-18T06:03:44;101761.91;;;15.91;100.00
47530;BME280;33272;51.922;7.730;2022-10-18T06:06:12;101768.84;;;15.92;100.00
47530;BME280;33272;51.922;7.730;2022-10-18T06:08:41;101779.19;;;15.92;100.00
47530;BME280;33272;51.922;7.730;2022-10-18T06:11:11;101772.56;;;15.95;100.00
47530;BME280;33272;51.922;7.730;2022-10-18T06:13:41;101776.94;;;15.96;100.00
47530;BME280;33272;51.922;7.730;2022-10-18T06:16:09;101770.22;;;15.98;100.00
47530;BME280;33272;51.922;7.730;2022-10-18T06:18:37;101772.88;;;16.00;100.00
47530;BME280;33272;51.922;7.730;2022-10-18T06:21:05;101784.31;;;16.04;100.00
47530;BME280;33272;51.922;7.730;2022-10-18T06:23:32;101783.41;;;16.03;100.00
47530;BME280;33272;51.922;7.730;2022-10-18T06:26:00;101786.13;;;16.05;100.00
47530;BME280;33272;51.922;7.730;2022-10-18T06:28:28;101781.84;;;16.05;100.00
47530;BME280;33272;51.922;7.730;2022-10-18T06:30:57;101787.91;;;16.06;100.00
47530;BME280;33272;51.922;7.730;2022-10-18T06:33:24;101786.31;;;16.08;100.00
47530;BME280;33272;51.922;7.730;2022-10-18T06:35:59;101784.72;;;16.10;100.00
47530;BME280;33272;51.922;7.730;2022-10-18T06:38:28;101784.94;;;16.13;100.00
47530;BME280;33272;51.922;7.730;2022-10-18T06:40:56;101794.59;;;16.15;100.00
47530;BME280;33272;51.922;7.730;2022-10-18T06:43:24;101786.25;;;16.19;100.00
47530;BME280;33272;51.922;7.730;2022-10-18T06:45:51;101792.44;;;16.21;100.00
47530;BME280;33272;51.922;7.730;2022-10-18T06:48:20;101798.78;;;16.27;100.00
47530;BME280;33272;51.922;7.730;2022-10-18T06:50:53;101794.75;;;16.30;100.00
47530;BME280;33272;51.922;7.730;2022-10-18T06:53:21;101800.81;;;16.31;100.00
47530;BME280;33272;51.922;7.730;2022-10-18T06:55:48;101813.81;;;16.32;100.00
47530;BME280;33272;51.922;7.730;2022-10-18T06:58:15;101811.91;;;16.30;100.00
47530;BME280;33272;51.922;7.730;2022-10-18T07:00:43;101818.78;;;16.29;100.00
47530;BME280;33272;51.922;7.730;2022-10-18T07:03:11;101807.66;;;16.30;100.00
47530;BME280;33272;51.922;7.730;2022-10-18T07:05:39;101812.84;;;16.30;100.00
47530;BME280;33272;51.922;7.730;2022-10-18T07:08:06;101818.00;;;16.30;100.00
47530;BME280;33272;51.922;7.730;2022-10-18T07:10:34;101817.19;;;16.31;100.00
47530;BME280;33272;51.922;7.730;2022-10-18T07:13:01;101821.56;;;16.32;100.00
47530;BME280;33272;51.922;7.730;2022-10-18T07:15:28;101817.28;;;16.33;100.00
47530;BME280;33272;51.922;7.730;2022-10-18T07:17:55;101832.91;;;16.34;100.00
47530;BME280;33272;51.922;7.730;2022-10-18T07:20:22;101830.31;;;16.34;100.00
47530;BME280;33272;51.922;7.730;2022-10-18T07:22:54;101829.53;;;16.35;100.00
47530;BME280;33272;51.922;7.730;2022-10-18T07:25:21;101832.91;;;16.34;100.00
47530;BME280;33272;51.922;7.730;2022-10-18T07:27:48;101838.06;;;16.34;100.00
47530;BME280;33272;51.922;7.730;2022-10-18T07:30:15;101844.25;;;16.36;100.00
47530;BME280;33272;51.922;7.730;2022-10-18T07:32:42;101850.53;;;16.40;100.00
47530;BME280;33272;51.922;7.730;2022-10-18T07:35:09;101851.63;;;16.43;100.00
47530;BME280;33272;51.922;7.730;2022-10-18T07:37:36;101856.88;;;16.45;100.00
47530;BME280;33272;51.922;7.730;2022-10-18T07:40:06;101851.84;;;16.47;100.00
47530;BME280;33272;51.922;7.730;2022-10-18T07:42:34;101861.50;;;16.49;100.00
47530;BME280;33272;51.922;7.730;2022-10-18T07:45:01;101871.13;;;16.52;100.00
47530;BME280;33272;51.922;7.730;2022-10-18T07:47:28;101882.59;;;16.55;100.00
47530;BME280;33272;51.922;7.730;2022-10-18T07:49:55;101886.06;;;16.56;100.00
47530;BME280;33272;51.922;7.730;2022-10-18T07:52:22;101892.34;;;16.59;100.00
47530;BME280;33272;51.922;7.730;2022-10-18T07:54:49;101897.59;;;16.61;100.00
47530;BME280;33272;51.922;7.730;2022-10-18T07:57:17;101883.09;;;16.63;100.00
47530;BME280;33272;51.922;7.730;2022-10-18T07:59:44;101892.41;;;16.61;100.00
47530;BME280;33272;51.922;7.730;2022-10-18T08:02:13;101886.47;;;16.62;100.00
47530;BME280;33272;51.922;7.730;2022-10-18T08:04:40;101893.53;;;16.64;100.00
47530;BME280;33272;51.922;7.730;2022-10-18T08:07:07;101891.84;;;16.65;100.00
47530;BME280;33272;51.922;7.730;2022-10-18T08:09:34;101890.25;;;16.67;100.00
47530;BME280;33272;51.922;7.730;2022-10-18T08:12:01;101892.84;;;16.67;100.00
47530;BME280;33272;51.922;7.730;2022-10-18T08:14:29;101888.47;;;16.66;100.00
47530;BME280;33272;51.922;7.730;2022-10-18T08:16:56;101881.53;;;16.65;100.00
47530;BME280;33272;51.922;7.730;2022-10-18T08:19:23;101894.06;;;16.72;100.00
47530;BME280;33272;51.922;7.730;2022-10-18T08:21:50;101896.09;;;16.76;100.00
47530;BME280;33272;51.922;7.730;2022-10-18T08:24:17;101894.94;;;16.73;100.00
47530;BME280;33272;51.922;7.730;2022-10-18T08:26:44;101899.09;;;16.71;100.00
47530;BME280;33272;51.922;7.730;2022-10-18T08:29:11;101904.50;;;16.74;100.00
47530;BME280;33272;51.922;7.730;2022-10-18T08:31:39;101916.75;;;16.76;100.00
47530;BME280;33272;51.922;7.730;2022-10-18T08:34:06;101913.78;;;16.83;100.00
47530;BME280;33272;51.922;7.730;2022-10-18T08:36:33;101909.03;;;16.89;100.00
47530;BME280;33272;51.922;7.730;2022-10-18T08:39:00;101920.56;;;16.81;100.00
47530;BME280;33272;51.922;7.730;2022-10-18T08:44:25;101923.66;;;16.64;100.00
47530;BME280;33272;51.922;7.730;2022-10-18T08:47:01;101920.38;;;16.66;100.00
47530;BME280;33272;51.922;7.730;2022-10-18T08:49:36;101923.31;;;16.71;100.00
47530;BME280;33272;51.922;7.730;2022-10-18T08:52:13;101926.72;;;16.83;100.00
47530;BME280;33272;51.922;7.730;2022-10-18T08:54:54;101924.19;;;16.97;100.00
47530;BME280;33272;51.922;7.730;2022-10-18T08:57:21;101916.94;;;17.04;100.00
47530;BME280;33272;51.922;7.730;2022-10-18T08:59:48;101920.00;;;16.99;100.00
47530;BME280;33272;51.922;7.730;2022-10-18T09:02:34;101929.19;;;17.07;100.00
47530;BME280;33272;51.922;7.730;2022-10-18T09:05:18;101932.47;;;17.18;100.00
47530;BME280;33272;51.922;7.730;2022-10-18T09:08:17;101932.59;;;17.19;100.00
47530;BME280;33272;51.922;7.730;2022-10-18T09:10:55;101931.38;;;17.27;100.00
47530;BME280;33272;51.922;7.730;2022-10-18T09:16:33;101938.25;;;17.40;100.00
47530;BME280;33272;51.922;7.730;2022-10-18T09:19:11;101943.16;;;17.49;100.00
47530;BME280;33272;51.922;7.730;2022-10-18T09:21:50;101935.38;;;17.62;100.00
47530;BME280;33272;51.922;7.730;2022-10-18T09:24:25;101945.56;;;17.72;100.00
47530;BME280;33272;51.922;7.730;2022-10-18T09:26:59;101943.84;;;17.73;100.00
47530;BME280;33272;51.922;7.730;2022-10-18T09:29:44;101946.53;;;17.61;100.00
47530;BME280;33272;51.922;7.730;2022-10-18T09:32:30;101943.66;;;17.56;100.00
47530;BME280;33272;51.922;7.730;2022-10-18T09:35:11;101944.97;;;17.63;100.00
47530;BME280;33272;51.922;7.730;2022-10-18T09:37:40;101945.84;;;17.64;100.00
47530;BME280;33272;51.922;7.730;2022-10-18T09:40:14;101947.84;;;17.54;100.00
47530;BME280;33272;51.922;7.730;2022-10-18T09:42:52;101949.03;;;17.59;100.00
47530;BME280;33272;51.922;7.730;2022-10-18T09:45:25;101959.38;;;17.73;100.00
47530;BME280;33272;51.922;7.730;2022-10-18T09:48:02;101954.53;;;17.77;100.00
47530;BME280;33272;51.922;7.730;2022-10-18T09:50:37;101953.72;;;17.92;100.00
47530;BME280;33272;51.922;7.730;2022-10-18T09:53:14;101964.19;;;18.06;100.00
47530;BME280;33272;51.922;7.730;2022-10-18T09:55:55;101970.09;;;18.19;100.00
47530;BME280;33272;51.922;7.730;2022-10-18T09:58:23;101971.81;;;18.32;100.00
47530;BME280;33272;51.922;7.730;2022-10-18T10:00:52;101965.09;;;18.35;100.00
47530;BME280;33272;51.922;7.730;2022-10-18T10:03:21;101962.72;;;18.38;100.00
47530;BME280;33272;51.922;7.730;2022-10-18T10:06:02;101969.66;;;18.39;100.00
47530;BME280;33272;51.922;7.730;2022-10-18T10:08:41;101965.75;;;18.46;100.00
47530;BME280;33272;51.922;7.730;2022-10-18T10:11:34;101965.13;;;18.50;100.00
47530;BME280;33272;51.922;7.730;2022-10-18T10:14:12;101968.78;;;18.67;100.00
47530;BME280;33272;51.922;7.730;2022-10-18T10:16:49;101973.97;;;18.67;100.00
47530;BME280;33272;51.922;7.730;2022-10-18T10:19:21;101975.56;;;18.65;100.00
47530;BME280;33272;51.922;7.730;2022-10-18T10:21:53;101978.47;;;18.56;100.00
47530;BME280;33272;51.922;7.730;2022-10-18T10:24:28;101981.00;;;18.55;100.00
47530;BME280;33272;51.922;7.730;2022-10-18T10:27:04;101977.41;;;18.52;100.00
47530;BME280;33272;51.922;7.730;2022-10-18T10:29:56;101983.72;;;18.43;100.00
47530;BME280;33272;51.922;7.730;2022-10-18T10:32:29;101975.50;;;18.50;100.00
47530;BME280;33272;51.922;7.730;2022-10-18T10:34:57;101977.13;;;18.48;100.00
47530;BME280;33272;51.922;7.730;2022-10-18T10:37:33;101987.50;;;18.35;100.00
47530;BME280;33272;51.922;7.730;2022-10-18T10:40:18;101983.25;;;18.22;100.00
47530;BME280;33272;51.922;7.730;2022-10-18T10:42:56;101973.44;;;18.16;100.00
47530;BME280;33272;51.922;7.730;2022-10-18T10:45:28;101976.22;;;18.19;100.00
47530;BME280;33272;51.922;7.730;2022-10-18T10:48:12;101979.50;;;18.17;100.00
47530;BME280;33272;51.922;7.730;2022-10-18T10:50:58;101971.22;;;18.50;100.00
47530;BME280;33272;51.922;7.730;2022-10-18T10:53:41;101962.47;;;18.77;100.00
47530;BME280;33272;51.922;7.730;2022-10-18T10:56:28;101976.91;;;18.86;100.00
47530;BME280;33272;51.922;7.730;2022-10-18T10:59:01;101978.78;;;19.04;100.00
47530;BME280;33272;51.922;7.730;2022-10-18T11:01:32;101973.72;;;19.20;100.00
47530;BME280;33272;51.922;7.730;2022-10-18T11:04:02;101970.50;;;19.24;100.00
47530;BME280;33272;51.922;7.730;2022-10-18T11:06:56;101978.72;;;19.17;100.00
47530;BME280;33272;51.922;7.730;2022-10-18T11:09:43;101988.97;;;19.01;100.00
47530;BME280;33272;51.922;7.730;2022-10-18T11:12:26;101974.13;;;18.83;100.00
47530;BME280;33272;51.922;7.730;2022-10-18T11:15:19;101967.34;;;18.44;100.00
47530;BME280;33272;51.922;7.730;2022-10-18T11:18:01;101973.97;;;18.39;100.00
47530;BME280;33272;51.922;7.730;2022-10-18T11:20:34;101983.94;;;18.33;100.00
47530;BME280;33272;51.922;7.730;2022-10-18T11:23:06;101983.06;;;18.19;100.00
47530;BME280;33272;51.922;7.730;2022-10-18T11:25:56;101978.09;;;18.09;100.00
47530;BME280;33272;51.922;7.730;2022-10-18T11:28:37;101972.41;;;18.14;100.00
47530;BME280;33272;51.922;7.730;2022-10-18T11:31:15;101977.09;;;18.20;100.00
47530;BME280;33272;51.922;7.730;2022-10-18T11:34:01;101962.53;;;18.22;100.00
47530;BME280;33272;51.922;7.730;2022-10-18T11:36:40;101966.63;;;18.32;100.00
47530;BME280;33272;51.922;7.730;2022-10-18T11:39:20;101967.16;;;18.41;100.00
47530;BME280;33272;51.922;7.730;2022-10-18T11:41:57;101965.88;;;18.47;100.00
47530;BME280;33272;51.922;7.730;2022-10-18T11:44:34;101969.00;;;18.57;100.00
47530;BME280;33272;51.922;7.730;2022-10-18T11:47:10;101960.38;;;18.71;100.00
47530;BME280;33272;51.922;7.730;2022-10-18T11:50:02;101963.03;;;18.58;100.00
47530;BME280;33272;51.922;7.730;2022-10-18T11:52:41;101975.69;;;18.53;100.00
47530;BME280;33272;51.922;7.730;2022-10-18T11:55:26;101963.53;;;18.52;100.00
47530;BME280;33272;51.922;7.730;2022-10-18T11:58:06;101962.41;;;18.62;100.00
47530;BME280;33272;51.922;7.730;2022-10-18T12:00:46;101974.09;;;18.55;98.82
47530;BME280;33272;51.922;7.730;2022-10-18T12:03:37;101972.50;;;18.57;100.00
47530;BME280;33272;51.922;7.730;2022-10-18T12:06:15;101959.44;;;18.56;100.00
47530;BME280;33272;51.922;7.730;2022-10-18T12:08:46;101964.16;;;18.48;100.00
47530;BME280;33272;51.922;7.730;2022-10-18T12:11:18;101957.91;;;18.44;100.00
47530;BME280;33272;51.922;7.730;2022-10-18T12:13:54;101960.44;;;18.58;100.00
47530;BME280;33272;51.922;7.730;2022-10-18T12:16:24;101950.69;;;18.68;100.00
47530;BME280;33272;51.922;7.730;2022-10-18T12:18:55;101951.28;;;18.78;100.00
47530;BME280;33272;51.922;7.730;2022-10-18T12:21:26;101949.19;;;18.85;100.00
47530;BME280;33272;51.922;7.730;2022-10-18T12:23:57;101954.25;;;18.84;100.00
47530;BME280;33272;51.922;7.730;2022-10-18T12:26:26;101951.09;;;18.74;100.00
47530;BME280;33272;51.922;7.730;2022-10-18T12:29:13;101949.09;;;18.70;100.00
47530;BME280;33272;51.922;7.730;2022-10-18T12:31:47;101960.59;;;18.74;100.00
47530;BME280;33272;51.922;7.730;2022-10-18T12:34:28;101962.47;;;18.77;100.00
47530;BME280;33272;51.922;7.730;2022-10-18T12:40:21;101953.75;;;19.04;100.00
47530;BME280;33272;51.922;7.730;2022-10-18T12:42:51;101946.59;;;19.15;100.00
47530;BME280;33272;51.922;7.730;2022-10-18T12:45:26;101939.41;;;19.26;100.00
47530;BME280;33272;51.922;7.730;2022-10-18T12:47:59;101953.38;;;19.28;100.00
47530;BME280;33272;51.922;7.730;2022-10-18T12:50:33;101955.97;;;19.42;94.62
47530;BME280;33272;51.922;7.730;2022-10-18T12:53:06;101947.44;;;19.60;99.69
47530;BME280;33272;51.922;7.730;2022-10-18T12:55:40;101949.69;;;19.54;97.52
47530;BME280;33272;51.922;7.730;2022-10-18T12:58:27;101958.00;;;19.48;87.72
47530;BME280;33272;51.922;7.730;2022-10-18T13:01:06;101959.13;;;19.37;85.41
47530;BME280;33272;51.922;7.730;2022-10-18T13:03:50;101956.09;;;19.14;81.79
47530;BME280;33272;51.922;7.730;2022-10-18T13:06:19;101958.84;;;19.17;91.01
47530;BME280;33272;51.922;7.730;2022-10-18T13:08:47;101955.44;;;19.18;91.05
47530;BME280;33272;51.922;7.730;2022-10-18T13:11:32;101952.84;;;18.89;82.82
47530;BME280;33272;51.922;7.730;2022-10-18T13:17:18;101950.16;;;19.02;89.98
47530;BME280;33272;51.922;7.730;2022-10-18T13:19:55;101942.03;;;19.11;86.47